createdAt,value
2018-05-15T00:02:07.872Z,77.90
2018-05-15T00:04:36.321Z,78.90
2018-05-15T00:07:04.064Z,78.80
2018-05-15T00:09:31.833Z,79.30
2018-05-15T00:11:59.583Z,79.20
2018-05-15T00:14:27.248Z,79.50
2018-05-15T00:16:54.876Z,80.40
2018-05-15T00:19:22.485Z,80.10
2018-05-15T00:21:50.213Z,80.60
2018-05-15T00:24:17.855Z,79.90
2018-05-15T00:26:45.502Z,80.40
2018-05-15T00:29:13.872Z,81.90
2018-05-15T00:31:42.393Z,82.00
2018-05-15T00:34:10.084Z,81.90
2018-05-15T00:36:37.695Z,82.40
2018-05-15T00:39:06.170Z,82.10
2018-05-15T00:41:33.786Z,81.90
2018-05-15T00:44:01.426Z,81.80
2018-05-15T00:46:29.063Z,80.90
2018-05-15T00:48:56.706Z,82.30
2018-05-15T00:51:25.066Z,81.60
2018-05-15T00:53:52.661Z,81.60
2018-05-15T00:56:21.058Z,82.50
2018-05-15T00:58:49.506Z,83.40
2018-05-15T01:01:17.123Z,83.40
2018-05-15T01:03:44.747Z,83.80
2018-05-15T01:06:12.358Z,84.50
2018-05-15T01:08:40.774Z,83.70
2018-05-15T01:11:08.375Z,84.40
2018-05-15T01:13:36.123Z,84.50
2018-05-15T01:16:04.016Z,83.50
2018-05-15T01:18:31.669Z,84.20
2018-05-15T01:20:59.306Z,85.70
2018-05-15T01:23:26.904Z,86.60
2018-05-15T01:25:54.530Z,86.50
2018-05-15T01:28:22.147Z,86.60
2018-05-15T01:30:50.568Z,86.50
2018-05-15T01:33:18.224Z,86.50
2018-05-15T01:35:45.853Z,86.70
2018-05-15T01:38:14.224Z,85.10
2018-05-15T01:40:42.960Z,87.30
2018-05-15T01:43:10.715Z,87.20
2018-05-15T01:45:38.384Z,86.60
2018-05-15T01:48:06.068Z,87.40
2018-05-15T01:50:33.663Z,88.10
2018-05-15T01:53:02.108Z,88.10
2018-05-15T01:55:29.717Z,88.10
2018-05-15T01:57:57.507Z,87.70
2018-05-15T02:00:25.371Z,87.40
2018-05-15T02:02:53.086Z,87.00
2018-05-15T02:05:21.474Z,87.50
2018-05-15T02:07:49.893Z,87.70
2018-05-15T02:10:17.497Z,87.60
2018-05-15T02:12:45.903Z,87.30
2018-05-15T02:15:14.800Z,87.20
2018-05-15T02:17:42.384Z,87.00
2018-05-15T02:20:10.428Z,87.90
2018-05-15T02:22:38.036Z,88.00
2018-05-15T02:25:05.615Z,87.80
2018-05-15T02:27:33.382Z,88.40
2018-05-15T02:30:01.200Z,88.20
2018-05-15T02:32:28.855Z,87.60
2018-05-15T02:34:56.456Z,88.10
2018-05-15T02:37:24.067Z,89.00
2018-05-15T02:39:51.664Z,90.10
2018-05-15T02:42:19.553Z,90.00
2018-05-15T02:44:47.270Z,90.00
2018-05-15T02:47:14.860Z,90.40
2018-05-15T02:49:42.477Z,90.30
2018-05-15T02:52:10.121Z,90.10
2018-05-15T02:54:38.481Z,90.30
2018-05-15T02:57:07.072Z,90.00
2018-05-15T02:59:35.460Z,90.40
2018-05-15T03:02:03.830Z,90.30
2018-05-15T03:04:33.606Z,90.70
2018-05-15T03:07:01.188Z,90.70
2018-05-15T03:09:28.764Z,90.90
2018-05-15T03:11:57.158Z,90.60
2018-05-15T03:14:24.724Z,90.60
2018-05-15T03:16:52.319Z,90.70
2018-05-15T03:19:19.967Z,90.70
2018-05-15T03:21:47.600Z,90.70
2018-05-15T03:24:15.212Z,90.20
2018-05-15T03:26:42.838Z,90.60
2018-05-15T03:29:10.476Z,90.90
2018-05-15T03:31:38.146Z,91.00
2018-05-15T03:34:05.765Z,91.10
2018-05-15T03:36:34.143Z,91.10
2018-05-15T03:39:01.760Z,91.10
2018-05-15T03:41:29.349Z,91.10
2018-05-15T03:43:57.611Z,91.40
2018-05-15T03:46:25.209Z,91.10
2018-05-15T03:48:53.823Z,91.90
2018-05-15T03:51:21.465Z,91.80
2018-05-15T03:53:49.845Z,91.30
2018-05-15T03:56:18.254Z,91.60
2018-05-15T03:58:46.123Z,91.50
2018-05-15T04:01:25.729Z,91.50
2018-05-15T04:04:06.331Z,91.80
2018-05-15T04:06:45.842Z,91.80
2018-05-15T04:09:13.452Z,90.90
2018-05-15T04:11:41.049Z,90.70
2018-05-15T04:14:09.430Z,90.80
2018-05-15T04:16:37.811Z,90.80
2018-05-15T04:19:06.184Z,91.10
2018-05-15T04:21:34.883Z,90.90
2018-05-15T04:24:03.274Z,90.70
2018-05-15T04:26:30.919Z,90.70
2018-05-15T04:28:58.823Z,90.60
2018-05-15T04:31:26.824Z,90.50
2018-05-15T04:33:54.485Z,90.50
2018-05-15T04:36:22.111Z,90.70
2018-05-15T04:38:49.754Z,90.40
2018-05-15T04:41:17.385Z,90.20
2018-05-15T04:43:45.843Z,88.90
2018-05-15T04:46:13.434Z,89.00
2018-05-15T04:48:41.937Z,90.30
2018-05-15T04:51:09.551Z,90.30
2018-05-15T04:53:38.093Z,89.90
2018-05-15T04:56:05.756Z,89.20
2018-05-15T04:58:34.084Z,89.20
2018-05-15T05:01:02.482Z,90.40
2018-05-15T05:03:30.202Z,90.30
2018-05-15T05:05:57.851Z,90.20
2018-05-15T05:08:25.523Z,89.60
2018-05-15T05:10:53.133Z,87.80
2018-05-15T05:13:21.118Z,88.00
2018-05-15T05:15:48.779Z,87.20
2018-05-15T05:18:16.378Z,88.40
2018-05-15T05:20:44.034Z,85.70
2018-05-15T05:23:12.202Z,87.00
2018-05-15T05:25:39.864Z,84.20
2018-05-15T05:28:08.405Z,86.30
2018-05-15T05:30:36.038Z,86.10
2018-05-15T05:33:03.718Z,85.40
2018-05-15T05:35:31.421Z,85.60
2018-05-15T05:37:59.207Z,83.30
2018-05-15T05:40:26.797Z,83.10
2018-05-15T05:42:55.166Z,82.50
2018-05-15T05:45:24.424Z,81.50
2018-05-15T05:47:52.009Z,81.50
2018-05-15T05:50:19.627Z,81.70
2018-05-15T05:52:47.230Z,80.90
2018-05-15T05:55:14.844Z,80.10
2018-05-15T05:57:42.431Z,79.50
2018-05-15T06:00:10.046Z,78.90
2018-05-15T06:02:37.708Z,78.80
2018-05-15T06:05:05.306Z,78.90
2018-05-15T06:07:32.882Z,77.90
2018-05-15T06:10:00.638Z,78.50
2018-05-15T06:12:28.223Z,76.40
2018-05-15T06:14:56.586Z,76.60
2018-05-15T06:17:24.191Z,76.10
2018-05-15T06:19:51.755Z,76.00
2018-05-15T06:22:19.791Z,75.70
2018-05-15T06:24:47.373Z,74.90
2018-05-15T06:27:15.708Z,72.00
2018-05-15T06:29:43.319Z,72.00
2018-05-15T06:32:10.910Z,72.10
2018-05-15T06:34:38.545Z,73.00
2018-05-15T06:37:06.281Z,71.50
2018-05-15T06:39:34.837Z,70.90
2018-05-15T06:42:02.476Z,70.80
2018-05-15T06:44:30.096Z,71.90
2018-05-15T06:46:57.671Z,72.20
2018-05-15T06:49:25.575Z,71.00
2018-05-15T06:51:53.852Z,71.10
2018-05-15T06:54:21.464Z,69.70
2018-05-15T06:56:49.374Z,70.50
2018-05-15T06:59:17.223Z,70.80
2018-05-15T07:01:44.838Z,71.20
2018-05-15T07:04:12.400Z,70.10
2018-05-15T07:06:40.927Z,68.00
2018-05-15T07:09:08.544Z,67.80
2018-05-15T07:11:36.940Z,67.20
2018-05-15T07:14:04.823Z,67.10
2018-05-15T07:16:32.434Z,65.90
2018-05-15T07:19:00.027Z,66.60
2018-05-15T07:21:27.674Z,64.90
2018-05-15T07:23:56.020Z,63.70
2018-05-15T07:26:23.616Z,63.70
2018-05-15T07:28:51.479Z,62.90
2018-05-15T07:31:19.309Z,63.00
2018-05-15T07:33:46.895Z,64.10
2018-05-15T07:36:15.269Z,65.70
2018-05-15T07:38:43.773Z,65.10
2018-05-15T07:41:11.356Z,65.10
2018-05-15T07:43:38.980Z,65.10
2018-05-15T07:46:07.406Z,65.30
2018-05-15T07:48:35.034Z,65.10
2018-05-15T07:51:02.633Z,63.30
2018-05-15T07:53:30.235Z,63.30
2018-05-15T07:55:58.615Z,60.90
2018-05-15T07:58:26.191Z,60.90
2018-05-15T08:00:53.773Z,62.20
2018-05-15T08:03:21.366Z,60.00
2018-05-15T08:05:48.922Z,61.40
2018-05-15T08:08:16.485Z,62.70
2018-05-15T08:10:44.126Z,61.90
2018-05-15T08:13:11.808Z,60.70
2018-05-15T08:15:39.361Z,60.10
2018-05-15T08:18:06.946Z,60.30
2018-05-15T08:20:34.593Z,58.80
2018-05-15T08:23:02.168Z,58.90
2018-05-15T08:25:29.763Z,58.00
2018-05-15T08:27:57.343Z,57.70
2018-05-15T08:30:24.935Z,57.30
2018-05-15T08:32:52.499Z,56.80
2018-05-15T08:35:20.140Z,56.70
2018-05-15T08:37:47.706Z,57.00
2018-05-15T08:40:15.360Z,57.60
2018-05-15T08:42:42.926Z,56.90
2018-05-15T08:45:10.487Z,55.50
2018-05-15T08:47:38.099Z,56.50
2018-05-15T08:50:05.682Z,55.50
2018-05-15T08:52:33.256Z,56.90
2018-05-15T08:55:00.869Z,55.70
2018-05-15T08:57:28.485Z,55.30
2018-05-15T08:59:56.829Z,54.80
2018-05-15T09:02:24.412Z,54.90
2018-05-15T09:04:52.011Z,56.50
2018-05-15T09:07:20.426Z,56.60
2018-05-15T09:09:48.774Z,56.10
2018-05-15T09:12:16.374Z,56.10
2018-05-15T09:14:44.026Z,57.10
2018-05-15T09:17:12.369Z,56.00
2018-05-15T09:19:39.940Z,56.00
2018-05-15T09:22:07.538Z,56.20
2018-05-15T09:24:35.131Z,56.70
2018-05-15T09:27:02.745Z,56.80
2018-05-15T09:29:30.324Z,55.90
2018-05-15T09:31:57.917Z,54.50
2018-05-15T09:34:25.491Z,55.50
2018-05-15T09:36:53.088Z,56.20
2018-05-15T09:39:21.586Z,57.10
2018-05-15T09:41:49.163Z,57.00
2018-05-15T09:44:16.788Z,56.50
2018-05-15T09:46:45.140Z,54.00
2018-05-15T09:49:12.711Z,54.00
2018-05-15T09:51:40.433Z,55.40
2018-05-15T09:54:08.007Z,56.10
2018-05-15T09:56:35.567Z,55.50
2018-05-15T09:59:03.152Z,55.10
2018-05-15T10:01:30.747Z,55.10
2018-05-15T10:03:58.331Z,56.30
2018-05-15T10:06:25.903Z,56.10
2018-05-15T10:08:53.470Z,56.10
2018-05-15T10:11:21.066Z,56.00
2018-05-15T10:13:48.628Z,56.60
2018-05-15T10:16:16.225Z,56.60
2018-05-15T10:18:43.825Z,57.40
2018-05-15T10:21:11.387Z,57.50
2018-05-15T10:23:39.088Z,57.10
2018-05-15T10:26:07.432Z,58.10
2018-05-15T10:28:34.973Z,58.10
2018-05-15T10:31:02.531Z,57.80
2018-05-15T10:33:30.082Z,58.20
2018-05-15T10:35:57.690Z,57.60
2018-05-15T10:38:25.239Z,57.40
2018-05-15T10:40:52.843Z,57.60
2018-05-15T10:43:20.429Z,58.10
2018-05-15T10:45:47.990Z,58.60
2018-05-15T10:48:15.623Z,59.10
2018-05-15T10:50:43.232Z,59.40
2018-05-15T10:53:10.771Z,59.30
2018-05-15T10:55:38.395Z,59.60
2018-05-15T10:58:06.755Z,60.00
2018-05-15T11:00:34.334Z,60.00
2018-05-15T11:03:01.938Z,59.50
2018-05-15T11:05:29.568Z,60.70
2018-05-15T11:07:57.938Z,61.90
2018-05-15T11:10:26.271Z,60.90
2018-05-15T11:12:53.935Z,61.00
2018-05-15T11:15:22.209Z,62.00
2018-05-15T11:17:49.815Z,62.00
2018-05-15T11:20:29.242Z,61.80
2018-05-15T11:23:09.535Z,62.80
2018-05-15T11:25:36.891Z,62.70
2018-05-15T11:28:04.477Z,63.20
2018-05-15T11:30:32.160Z,64.00
2018-05-15T11:33:00.416Z,66.40
2018-05-15T11:35:28.779Z,66.20
2018-05-15T11:37:56.339Z,66.20
2018-05-15T11:40:23.905Z,67.30
2018-05-15T11:42:51.503Z,69.90
2018-05-15T11:45:19.128Z,69.80
2018-05-15T11:47:46.999Z,69.70
2018-05-15T11:50:15.237Z,71.40
2018-05-15T11:52:42.289Z,73.40
2018-05-15T11:55:09.535Z,74.40
2018-05-15T11:57:37.858Z,76.70
2018-05-15T12:00:05.432Z,76.60
2018-05-15T12:02:33.127Z,77.10
2018-05-15T12:05:00.673Z,78.30
2018-05-15T12:07:28.239Z,79.70
2018-05-15T12:09:55.862Z,80.10
2018-05-15T12:12:23.436Z,79.00
2018-05-15T12:14:50.993Z,78.60
2018-05-15T12:17:18.575Z,79.20
2018-05-15T12:19:46.161Z,78.10
2018-05-15T12:22:14.496Z,78.90
2018-05-15T12:24:42.070Z,78.90
2018-05-15T12:27:09.651Z,78.60
2018-05-15T12:29:37.223Z,80.50
2018-05-15T12:32:04.819Z,77.40
2018-05-15T12:34:32.396Z,77.80
2018-05-15T12:36:59.995Z,75.10
2018-05-15T12:39:28.440Z,76.80
2018-05-15T12:41:56.162Z,76.80
2018-05-15T12:44:23.614Z,76.40
2018-05-15T12:46:51.218Z,74.90
2018-05-15T12:49:18.804Z,76.60
2018-05-15T12:51:46.534Z,76.20
2018-05-15T12:54:14.174Z,74.60
2018-05-15T12:56:42.542Z,74.60
2018-05-15T12:59:10.144Z,74.50
2018-05-15T13:01:37.753Z,74.10
2018-05-15T13:04:06.095Z,74.60
2018-05-15T13:06:33.677Z,74.50
2018-05-15T13:09:01.250Z,75.10
2018-05-15T13:11:29.589Z,72.90
2018-05-15T13:13:57.183Z,72.90
2018-05-15T13:16:24.756Z,72.10
2018-05-15T13:18:52.363Z,73.30
2018-05-15T13:21:19.931Z,73.10
2018-05-15T13:23:47.515Z,73.10
2018-05-15T13:26:15.119Z,73.40
2018-05-15T13:28:42.678Z,72.50
2018-05-15T13:31:10.240Z,72.70
2018-05-15T13:33:37.819Z,72.50
2018-05-15T13:36:05.401Z,73.00
2018-05-15T13:38:32.994Z,72.20
2018-05-15T13:41:00.659Z,72.90
2018-05-15T13:43:28.201Z,73.10
2018-05-15T13:45:55.787Z,74.20
2018-05-15T13:48:24.145Z,73.30
2018-05-15T13:50:51.772Z,73.20
2018-05-15T13:53:19.413Z,72.70
2018-05-15T13:55:46.980Z,74.00
2018-05-15T13:58:14.542Z,73.60
2018-05-15T14:00:42.137Z,73.10
2018-05-15T14:03:09.710Z,74.10
2018-05-15T14:05:37.300Z,75.40
2018-05-15T14:08:05.653Z,74.70
2018-05-15T14:10:33.333Z,74.70
2018-05-15T14:13:00.912Z,75.90
2018-05-15T14:15:28.473Z,76.90
2018-05-15T14:17:56.120Z,77.00
2018-05-15T14:20:24.451Z,79.40
2018-05-15T14:22:52.099Z,79.30
2018-05-15T14:25:19.675Z,79.40
2018-05-15T14:27:47.250Z,80.40
2018-05-15T14:30:14.865Z,81.30
2018-05-15T14:32:42.453Z,81.90
2018-05-15T14:35:10.035Z,83.30
2018-05-15T14:37:38.627Z,81.90
2018-05-15T14:40:06.266Z,83.50
2018-05-15T14:42:45.656Z,83.90
2018-05-15T14:45:16.106Z,84.30
2018-05-15T14:47:43.701Z,84.60
2018-05-15T14:50:11.292Z,84.00
2018-05-15T14:52:38.861Z,84.80
2018-05-15T14:55:07.239Z,84.30
2018-05-15T14:57:34.800Z,84.30
2018-05-15T15:00:03.134Z,84.20
2018-05-15T15:02:30.775Z,84.20
2018-05-15T15:04:58.353Z,81.30
2018-05-15T15:07:25.929Z,81.30
2018-05-15T15:09:53.670Z,80.80
2018-05-15T15:12:21.231Z,80.60
2018-05-15T15:14:48.802Z,81.20
2018-05-15T15:17:16.441Z,81.20
2018-05-15T15:19:43.974Z,81.10
2018-05-15T15:22:11.569Z,81.70
2018-05-15T15:24:39.159Z,83.20
2018-05-15T15:27:06.753Z,83.40
2018-05-15T15:29:35.139Z,83.70
2018-05-15T15:32:02.716Z,83.70
2018-05-15T15:34:31.040Z,83.90
2018-05-15T15:36:58.606Z,83.10
2018-05-15T15:39:26.281Z,83.90
2018-05-15T15:41:54.684Z,84.30
2018-05-15T15:44:22.251Z,84.20
2018-05-15T15:46:49.845Z,84.50
2018-05-15T15:49:17.475Z,84.20
2018-05-15T15:51:45.052Z,84.80
2018-05-15T15:54:12.612Z,83.70
2018-05-15T15:56:40.372Z,84.50
2018-05-15T15:59:07.963Z,84.00
2018-05-15T16:01:35.513Z,82.50
2018-05-15T16:04:03.197Z,83.50
2018-05-15T16:06:30.719Z,83.30
2018-05-15T16:08:58.290Z,82.10
2018-05-15T16:11:25.858Z,83.80
2018-05-15T16:13:53.446Z,82.00
2018-05-15T16:16:21.131Z,84.20
2018-05-15T16:18:48.706Z,82.20
2018-05-15T16:21:16.284Z,83.90
2018-05-15T16:23:43.977Z,84.20
2018-05-15T16:26:11.757Z,84.90
2018-05-15T16:28:39.434Z,84.30
2018-05-15T16:31:07.013Z,83.30
2018-05-15T16:33:34.598Z,82.00
2018-05-15T16:36:02.193Z,84.40
2018-05-15T16:38:29.793Z,84.40
2018-05-15T16:40:57.381Z,82.90
2018-05-15T16:43:25.099Z,84.10
2018-05-15T16:45:52.624Z,85.00
2018-05-15T16:48:20.245Z,84.60
2018-05-15T16:50:47.869Z,84.90
2018-05-15T16:53:15.517Z,85.00
2018-05-15T16:55:43.072Z,84.50
2018-05-15T16:58:10.689Z,85.40
2018-05-15T17:00:38.277Z,85.00
2018-05-15T17:03:05.951Z,84.80
2018-05-15T17:05:33.552Z,85.00
2018-05-15T17:08:01.907Z,84.60
2018-05-15T17:10:29.521Z,84.60
2018-05-15T17:12:57.145Z,83.90
2018-05-15T17:15:25.496Z,84.50
2018-05-15T17:17:53.088Z,84.40
2018-05-15T17:20:21.479Z,84.30
2018-05-15T17:22:49.072Z,84.30
2018-05-15T17:25:16.727Z,83.80
2018-05-15T17:27:44.284Z,85.00
2018-05-15T17:30:11.860Z,84.70
2018-05-15T17:32:39.489Z,84.90
2018-05-15T17:35:07.866Z,85.40
2018-05-15T17:37:35.473Z,85.40
2018-05-15T17:40:03.110Z,85.30
2018-05-15T17:42:30.787Z,85.60
2018-05-15T17:44:58.386Z,85.60
2018-05-15T17:47:26.029Z,85.50
2018-05-15T17:49:54.393Z,85.60
2018-05-15T17:52:21.949Z,85.60
2018-05-15T17:54:49.598Z,86.50
2018-05-15T17:57:17.135Z,85.90
2018-05-15T17:59:45.581Z,86.60
2018-05-15T18:02:13.139Z,86.60
2018-05-15T18:04:40.707Z,85.70
2018-05-15T18:07:08.324Z,86.30
2018-05-15T18:09:35.985Z,86.60
2018-05-15T18:12:03.561Z,86.70
2018-05-15T18:14:31.134Z,87.20
2018-05-15T18:16:58.701Z,87.20
2018-05-15T18:19:26.296Z,87.40
2018-05-15T18:21:54.636Z,87.60
2018-05-15T18:24:22.366Z,87.50
2018-05-15T18:26:49.949Z,88.00
2018-05-15T18:29:17.539Z,87.50
2018-05-15T18:31:45.150Z,87.60
2018-05-15T18:34:12.719Z,88.20
2018-05-15T18:36:40.309Z,87.60
2018-05-15T18:39:07.986Z,88.20
2018-05-15T18:41:36.273Z,88.00
2018-05-15T18:44:03.875Z,88.00
2018-05-15T18:46:31.834Z,88.00
2018-05-15T18:48:59.402Z,88.80
2018-05-15T18:51:26.986Z,87.30
2018-05-15T18:53:54.582Z,88.10
2018-05-15T18:56:22.159Z,88.10
2018-05-15T18:58:50.551Z,89.30
2018-05-15T19:01:18.136Z,88.50
2018-05-15T19:03:45.743Z,89.20
2018-05-15T19:06:13.318Z,89.00
2018-05-15T19:08:40.926Z,89.40
2018-05-15T19:11:08.547Z,89.90
2018-05-15T19:13:36.869Z,89.20
2018-05-15T19:16:04.469Z,88.50
2018-05-15T19:18:32.935Z,90.00
2018-05-15T19:21:00.532Z,90.30
2018-05-15T19:23:28.112Z,89.20
2018-05-15T19:25:55.755Z,90.40
2018-05-15T19:28:24.123Z,89.00
2018-05-15T19:30:52.454Z,89.30
2018-05-15T19:33:25.707Z,89.30
2018-05-15T19:35:53.230Z,89.40
2018-05-15T19:38:20.839Z,89.50
2018-05-15T19:40:48.414Z,89.80
2018-05-15T19:43:15.970Z,89.80
2018-05-15T19:45:43.560Z,90.10
2018-05-15T19:48:11.121Z,90.10
2018-05-15T19:50:38.719Z,89.10
2018-05-15T19:53:06.287Z,90.20
2018-05-15T19:55:34.655Z,90.40
2018-05-15T19:58:03.055Z,90.50
2018-05-15T20:00:31.387Z,90.30
2018-05-15T20:02:58.965Z,90.30
2018-05-15T20:05:26.575Z,90.10
2018-05-15T20:07:54.145Z,90.10
2018-05-15T20:10:21.723Z,90.10
2018-05-15T20:12:49.335Z,90.30
2018-05-15T20:15:17.662Z,90.60
2018-05-15T20:17:45.237Z,90.60
2018-05-15T20:20:12.831Z,91.00
2018-05-15T20:22:41.165Z,90.90
2018-05-15T20:25:08.769Z,90.90
2018-05-15T20:27:37.111Z,91.30
2018-05-15T20:30:04.691Z,91.20
2018-05-15T20:32:32.310Z,91.00
2018-05-15T20:34:59.919Z,91.20
2018-05-15T20:37:27.450Z,91.50
2018-05-15T20:39:55.045Z,91.30
2018-05-15T20:42:23.451Z,91.20
2018-05-15T20:44:51.019Z,91.20
2018-05-15T20:47:18.593Z,90.70
2018-05-15T20:49:46.171Z,91.50
2018-05-15T20:52:13.768Z,91.90
2018-05-15T20:54:41.329Z,91.70
2018-05-15T20:57:09.668Z,92.40
2018-05-15T20:59:37.232Z,92.40
2018-05-15T21:02:04.850Z,92.00
2018-05-15T21:04:32.409Z,91.90
2018-05-15T21:06:59.972Z,91.50
2018-05-15T21:09:27.570Z,91.70
2018-05-15T21:11:55.168Z,91.80
2018-05-15T21:14:22.739Z,91.60
2018-05-15T21:16:50.321Z,92.50
2018-05-15T21:19:17.883Z,92.20
2018-05-15T21:21:45.462Z,92.90
2018-05-15T21:24:13.081Z,92.20
2018-05-15T21:26:41.436Z,92.80
2018-05-15T21:29:08.996Z,92.80
2018-05-15T21:31:36.574Z,92.90
2018-05-15T21:34:04.923Z,92.70
2018-05-15T21:36:32.510Z,92.70
2018-05-15T21:39:00.123Z,92.80
2018-05-15T21:41:27.703Z,93.00
2018-05-15T21:43:55.345Z,92.60
2018-05-15T21:46:22.943Z,93.10
2018-05-15T21:48:50.506Z,93.40
2018-05-15T21:51:18.086Z,92.80
2018-05-15T21:53:46.446Z,93.50
2018-05-15T21:58:46.891Z,93.50
2018-05-15T22:01:14.490Z,93.40
2018-05-15T22:03:42.098Z,93.30
2018-05-15T22:06:10.419Z,92.70
2018-05-15T22:08:38.146Z,92.70
2018-05-15T22:11:14.276Z,92.90
2018-05-15T22:13:53.546Z,93.30
2018-05-15T22:16:32.892Z,92.60
2018-05-15T22:19:12.070Z,92.60
2018-05-15T22:21:51.409Z,92.50
2018-05-15T22:24:26.369Z,92.10
2018-05-15T22:26:53.963Z,93.30
2018-05-15T22:29:22.761Z,92.90
2018-05-15T22:31:51.108Z,92.90
2018-05-15T22:34:18.733Z,92.90
2018-05-15T22:36:46.338Z,93.20
2018-05-15T22:39:13.881Z,93.20
2018-05-15T22:41:41.508Z,93.20
2018-05-15T22:44:09.062Z,93.30
2018-05-15T22:46:36.621Z,93.60
2018-05-15T22:49:04.223Z,93.30
2018-05-15T22:51:31.809Z,93.50
2018-05-15T22:53:59.400Z,93.30
2018-05-15T22:56:26.997Z,93.10
2018-05-15T22:58:56.290Z,93.20
2018-05-15T23:01:23.862Z,92.80
2018-05-15T23:03:51.455Z,92.70
2018-05-15T23:06:19.044Z,92.80
2018-05-15T23:08:46.623Z,92.70
2018-05-15T23:11:14.254Z,92.90
2018-05-15T23:13:41.810Z,93.30
2018-05-15T23:16:09.376Z,93.50
2018-05-15T23:18:37.731Z,93.50
2018-05-15T23:21:05.302Z,93.40
2018-05-15T23:23:32.932Z,93.50
2018-05-15T23:26:00.499Z,93.20
2018-05-15T23:28:28.079Z,93.60
2018-05-15T23:30:55.667Z,93.00
2018-05-15T23:33:23.256Z,93.30
2018-05-15T23:35:50.847Z,93.20
2018-05-15T23:38:18.427Z,93.80
2018-05-15T23:40:46.020Z,93.60
2018-05-15T23:43:13.579Z,93.60
2018-05-15T23:45:41.143Z,93.80
2018-05-15T23:48:08.769Z,93.60
2018-05-15T23:50:36.347Z,93.60
2018-05-15T23:53:04.229Z,93.60
2018-05-15T23:58:04.795Z,94.20
